Time;durP1;ratioP1;P1;durP2;ratioP2;P2;SDS_P1;SDS_P2;PMS_P1;PMS_P2;Temp;Humidity;BMP_temperature;BMP_pressure;BME280_temperature;BME280_humidity;BME280_pressure;Samples;Min_cycle;Max_cycle;Signal;HPM_P1;HPM_P2
2023/04/30 00:01:19;;;;;;;10.83;9.40;;;;;;;10.11;89.68;97848.75;6075865;29;20267;-43
2023/04/30 00:04:21;;;;;;;9.67;8.50;;;;;;;10.00;88.64;97861.84;6076270;29;20328;-41
2023/04/30 00:07:23;;;;;;;8.60;7.80;;;;;;;10.06;87.32;97844.91;6072780;29;20246;-43
2023/04/30 00:10:25;;;;;;;10.20;7.30;;;;;;;9.99;85.06;97843.41;6072236;29;20245;-43
2023/04/30 00:13:27;;;;;;;7.83;7.07;;;;;;;9.85;85.13;97848.16;6066440;29;20906;-41
2023/04/30 00:16:30;;;;;;;8.20;6.63;;;;;;;9.77;83.98;97841.38;6073408;29;20753;-43
2023/04/30 00:19:32;;;;;;;7.70;7.00;;;;;;;9.67;85.06;97861.63;6071070;29;20238;-41
2023/04/30 00:22:34;;;;;;;8.13;7.33;;;;;;;9.57;83.64;97851.56;6067194;29;20602;-42
2023/04/30 00:25:36;;;;;;;8.70;7.80;;;;;;;9.40;85.78;97862.03;6073111;29;20227;-41
2023/04/30 00:28:38;;;;;;;8.60;7.17;;;;;;;9.27;85.60;97859.63;6069696;29;20316;-42
2023/04/30 00:31:40;;;;;;;8.90;8.00;;;;;;;9.18;85.11;97856.47;6078315;29;20235;-41
2023/04/30 00:34:42;;;;;;;8.13;7.20;;;;;;;9.28;82.91;97858.56;6065471;29;20237;-41
2023/04/30 00:37:45;;;;;;;8.73;7.53;;;;;;;9.09;84.48;97868.47;6072014;29;20240;-41
2023/04/30 00:40:48;;;;;;;9.57;7.17;;;;;;;8.96;84.57;97869.44;6079643;29;20700;-42
2023/04/30 00:43:50;;;;;;;10.10;7.80;;;;;;;8.94;84.79;97878.69;6076376;29;20923;-41
2023/04/30 00:46:52;;;;;;;9.67;7.90;;;;;;;9.02;82.51;97881.06;6058441;29;20331;-42
2023/04/30 00:49:54;;;;;;;8.10;7.23;;;;;;;8.71;84.18;97855.50;6060937;29;20289;-43
2023/04/30 00:52:58;;;;;;;9.13;8.07;;;;;;;8.82;83.41;97891.97;6076866;29;20244;-42
2023/04/30 00:56:01;;;;;;;9.60;7.50;;;;;;;8.79;83.07;97889.75;6059256;29;20234;-41
2023/04/30 00:59:09;;;;;;;8.63;7.73;;;;;;;8.75;83.48;97900.00;6077434;29;20232;-41
2023/04/30 01:02:12;;;;;;;9.23;7.57;;;;;;;8.65;83.87;97897.06;6057958;29;20231;-41
2023/04/30 01:05:14;;;;;;;10.27;8.30;;;;;;;8.35;84.62;97865.13;6075447;29;20224;-41
2023/04/30 01:08:16;;;;;;;11.20;7.87;;;;;;;8.45;85.11;97905.28;6079334;29;20689;-41
2023/04/30 01:11:35;;;;;;;13.30;9.53;;;;;;;8.35;85.53;97914.75;6061046;29;20235;-41
2023/04/30 01:14:56;;;;;;;10.43;7.33;;;;;;;8.21;86.82;97917.56;6058424;29;20240;-41
2023/04/30 01:18:12;;;;;;;10.63;8.60;;;;;;;8.13;87.10;97923.16;6072333;29;20274;-41
2023/04/30 01:21:19;;;;;;;14.03;9.33;;;;;;;8.07;87.03;97913.41;6071678;29;20302;-41
2023/04/30 01:24:40;;;;;;;9.43;8.23;;;;;;;8.05;87.82;97915.47;6058122;29;20244;-41
2023/04/30 01:28:05;;;;;;;12.07;10.13;;;;;;;8.03;88.28;97928.16;6076202;29;20291;-41
2023/04/30 01:31:17;;;;;;;12.27;9.30;;;;;;;8.03;88.62;97922.88;6058639;29;20295;-41
2023/04/30 01:34:19;;;;;;;12.53;9.37;;;;;;;8.02;88.42;97929.19;6060600;29;20259;-42
2023/04/30 01:37:41;;;;;;;11.03;8.70;;;;;;;8.06;88.87;97934.88;6077051;29;20292;-40
2023/04/30 01:40:51;;;;;;;10.20;8.10;;;;;;;8.09;88.96;97937.09;6078842;29;20328;-41
2023/04/30 01:44:11;;;;;;;13.03;8.57;;;;;;;8.09;89.08;97934.44;6077340;29;20232;-42
2023/04/30 01:47:32;;;;;;;10.30;8.40;;;;;;;8.11;89.05;97930.53;6075322;29;20234;-42
2023/04/30 01:50:46;;;;;;;12.10;8.60;;;;;;;8.12;89.15;97932.13;6066449;29;20226;-41
2023/04/30 01:53:48;;;;;;;11.03;8.50;;;;;;;8.12;89.14;97936.63;6073626;29;20235;-42
2023/04/30 01:57:03;;;;;;;11.40;8.07;;;;;;;8.14;89.71;97935.41;6074049;29;20257;-41
2023/04/30 02:00:09;;;;;;;13.23;9.27;;;;;;;8.17;90.02;97940.25;6059102;29;20268;-43
2023/04/30 02:03:15;;;;;;;16.57;10.70;;;;;;;8.19;89.64;97935.56;6054882;29;20226;-41
2023/04/30 02:06:17;;;;;;;20.93;12.63;;;;;;;8.30;89.49;97955.25;6071828;29;20223;-41
2023/04/30 02:09:22;;;;;;;14.40;11.00;;;;;;;8.32;89.22;97955.81;6077610;29;20824;-41
2023/04/30 02:12:26;;;;;;;13.90;10.23;;;;;;;8.23;89.22;97930.63;6079820;29;20239;-41
2023/04/30 02:15:28;;;;;;;14.57;11.10;;;;;;;8.41;89.00;97965.16;6046062;29;20244;-41
2023/04/30 02:18:30;;;;;;;16.27;12.07;;;;;;;8.43;88.58;97963.09;6078526;29;20597;-42
2023/04/30 02:21:32;;;;;;;14.33;11.27;;;;;;;8.47;87.30;97958.97;6063511;29;20252;-41
2023/04/30 02:24:35;;;;;;;15.73;12.03;;;;;;;8.50;85.90;97966.47;6077229;29;20243;-42
2023/04/30 02:27:37;;;;;;;12.23;10.90;;;;;;;8.53;85.99;97976.66;6058291;29;20320;-42
2023/04/30 02:30:39;;;;;;;11.10;9.90;;;;;;;8.55;85.75;97965.00;6066164;29;20243;-42
2023/04/30 02:33:41;;;;;;;13.00;10.67;;;;;;;8.67;83.00;97968.53;6074598;29;20251;-41
2023/04/30 02:36:43;;;;;;;12.90;10.03;;;;;;;8.70;82.70;97973.41;6074707;29;20257;-41
2023/04/30 02:39:46;;;;;;;12.00;10.43;;;;;;;8.73;81.28;97972.97;6075717;29;20318;-41
2023/04/30 02:42:48;;;;;;;13.23;10.03;;;;;;;8.78;82.17;97967.81;6058101;29;20711;-41
2023/04/30 02:45:50;;;;;;;15.37;11.53;;;;;;;8.86;80.72;97980.78;6076171;29;20261;-41
2023/04/30 02:48:52;;;;;;;13.17;10.57;;;;;;;8.83;80.68;97991.88;6074202;29;20241;-42
2023/04/30 02:51:54;;;;;;;12.70;9.40;;;;;;;8.95;80.09;97984.75;6072721;29;20248;-41
2023/04/30 02:54:56;;;;;;;12.37;9.63;;;;;;;8.83;80.76;97991.06;6066187;29;20337;-43
2023/04/30 02:57:58;;;;;;;11.60;9.20;;;;;;;8.61;82.22;97972.09;6057950;29;20380;-40
2023/04/30 03:01:00;;;;;;;11.90;10.00;;;;;;;8.69;84.04;97990.38;6058017;29;20717;-41
2023/04/30 03:04:03;;;;;;;15.50;11.10;;;;;;;8.58;84.74;97991.13;6065738;29;20240;-42
2023/04/30 03:07:05;;;;;;;11.57;9.80;;;;;;;8.51;84.26;97999.16;6075287;29;20280;-41
2023/04/30 03:10:09;;;;;;;11.30;9.23;;;;;;;8.50;84.91;97997.53;6072968;29;20627;-41
2023/04/30 03:13:11;;;;;;;11.03;9.80;;;;;;;8.50;86.28;97984.25;6067747;29;20232;-42
2023/04/30 03:16:13;;;;;;;14.13;10.90;;;;;;;8.47;86.27;97996.16;6059192;29;20274;-42
2023/04/30 03:19:16;;;;;;;13.13;10.90;;;;;;;8.43;85.49;98002.13;6079591;29;20651;-42
2023/04/30 03:22:19;;;;;;;13.97;11.00;;;;;;;8.44;85.36;98009.84;6059373;29;20778;-42
2023/04/30 03:25:21;;;;;;;9.80;8.53;;;;;;;8.47;85.61;98005.94;6062849;29;20244;-41
2023/04/30 03:28:23;;;;;;;10.77;8.83;;;;;;;8.48;85.62;98010.22;6061883;29;20355;-41
2023/04/30 03:31:26;;;;;;;9.67;8.67;;;;;;;8.47;85.81;98014.72;6077142;29;20244;-41
2023/04/30 03:34:30;;;;;;;11.70;9.73;;;;;;;8.45;86.56;98008.00;6058273;29;20243;-41
2023/04/30 03:37:32;;;;;;;10.83;9.13;;;;;;;8.44;86.81;98009.03;6081369;29;20231;-42
2023/04/30 03:40:34;;;;;;;10.80;8.93;;;;;;;8.42;86.69;98011.09;6078523;29;20250;-41
2023/04/30 03:43:36;;;;;;;10.17;9.07;;;;;;;8.29;87.27;97993.44;6074990;29;20262;-42
2023/04/30 03:46:39;;;;;;;10.37;9.00;;;;;;;8.41;87.53;98023.56;6081758;29;20236;-42
2023/04/30 03:49:41;;;;;;;10.20;9.03;;;;;;;8.42;87.43;98016.41;6079720;29;20262;-41
2023/04/30 03:52:43;;;;;;;12.07;10.33;;;;;;;8.48;87.55;98020.84;6066079;29;20386;-42
2023/04/30 03:55:48;;;;;;;15.23;11.90;;;;;;;8.42;86.55;98019.06;6064288;29;20251;-41
2023/04/30 03:58:50;;;;;;;13.97;10.93;;;;;;;8.46;86.59;98017.59;6072709;29;20294;-42
2023/04/30 04:01:53;;;;;;;10.77;9.67;;;;;;;8.48;87.06;98020.84;6056762;29;20989;-42
2023/04/30 04:04:55;;;;;;;13.47;11.00;;;;;;;8.46;86.48;98026.34;6057386;29;20725;-41
2023/04/30 04:07:57;;;;;;;12.97;10.70;;;;;;;8.46;86.29;98030.84;6064346;29;20244;-41
2023/04/30 04:10:59;;;;;;;14.47;10.40;;;;;;;8.56;86.12;98033.81;6073288;29;20327;-43
2023/04/30 04:14:01;;;;;;;14.30;11.03;;;;;;;8.58;84.91;98034.44;6075186;29;20275;-42
2023/04/30 04:17:06;;;;;;;15.10;10.90;;;;;;;7.78;84.00;97909.59;6063564;29;20323;-41
2023/04/30 04:20:09;;;;;;;14.07;10.03;;;;;;;8.62;84.74;98040.94;6073040;29;20238;-41
2023/04/30 04:23:15;;;;;;;14.00;9.77;;;;;;;8.62;84.06;98046.25;6063806;29;20224;-41
2023/04/30 04:26:18;;;;;;;12.67;10.17;;;;;;;8.66;84.09;98055.38;6076315;29;20832;-41
2023/04/30 04:29:20;;;;;;;13.37;10.00;;;;;;;8.69;83.73;98059.44;6064531;29;20677;-41
2023/04/30 04:32:23;;;;;;;12.30;9.90;;;;;;;8.68;84.05;98058.63;6061615;29;20231;-42
2023/04/30 04:35:25;;;;;;;13.50;10.30;;;;;;;8.68;83.99;98058.63;6072171;29;20741;-41
2023/04/30 04:38:27;;;;;;;12.57;9.83;;;;;;;8.70;83.93;98058.41;6061490;29;20734;-41
2023/04/30 04:41:31;;;;;;;13.20;10.40;;;;;;;8.71;85.18;98066.16;6060085;29;20226;-42
2023/04/30 04:44:33;;;;;;;12.67;11.33;;;;;;;8.83;81.38;98065.44;6055175;29;20807;-42
2023/04/30 04:47:36;;;;;;;13.27;11.17;;;;;;;9.02;79.67;98062.56;6078139;29;20235;-40
2023/04/30 04:50:39;;;;;;;12.13;10.13;;;;;;;9.17;77.56;98066.69;6055580;29;20240;-42
2023/04/30 04:53:41;;;;;;;12.33;9.77;;;;;;;9.25;77.46;98069.81;6070885;29;20232;-41
2023/04/30 04:56:44;;;;;;;11.23;9.30;;;;;;;9.13;80.45;98068.97;6072417;29;20261;-41
2023/04/30 04:59:46;;;;;;;13.10;9.77;;;;;;;9.17;78.72;98077.31;6063066;29;20382;-42
2023/04/30 05:02:48;;;;;;;13.67;10.70;;;;;;;9.22;78.70;98080.13;6062692;29;20609;-41
2023/04/30 05:05:51;;;;;;;11.73;9.97;;;;;;;9.22;78.15;98083.59;6055419;29;20247;-40
2023/04/30 05:08:53;;;;;;;11.47;10.27;;;;;;;9.37;76.88;98080.53;6076236;29;20358;-41
2023/04/30 05:11:55;;;;;;;11.57;10.03;;;;;;;9.36;78.85;98083.41;6055352;29;20305;-41
2023/04/30 05:14:57;;;;;;;13.20;10.70;;;;;;;9.55;76.24;98085.81;6082011;29;20250;-40
2023/04/30 05:17:59;;;;;;;11.53;9.57;;;;;;;9.57;76.17;98083.75;6079019;29;20265;-41
2023/04/30 05:21:03;;;;;;;11.43;9.23;;;;;;;9.68;75.55;98086.69;6065900;29;20232;-40
2023/04/30 05:24:05;;;;;;;11.87;10.10;;;;;;;9.62;76.84;98090.25;6078719;29;20286;-41
2023/04/30 05:27:07;;;;;;;13.00;9.87;;;;;;;9.66;75.85;98091.41;6079206;29;20226;-42
2023/04/30 05:30:10;;;;;;;12.40;9.80;;;;;;;9.67;75.82;98096.50;6079867;29;20581;-42
2023/04/30 05:33:12;;;;;;;15.43;9.73;;;;;;;9.65;76.81;98093.25;6079957;29;20260;-42
2023/04/30 05:36:15;;;;;;;15.03;10.10;;;;;;;9.73;76.97;98092.13;6077135;29;20226;-41
2023/04/30 05:39:17;;;;;;;11.47;9.50;;;;;;;9.74;77.57;98091.09;6057363;29;20750;-42
2023/04/30 05:42:20;;;;;;;11.53;9.17;;;;;;;9.69;77.63;98104.25;6076431;29;20237;-41
2023/04/30 05:45:24;;;;;;;12.10;9.93;;;;;;;9.72;77.47;98099.31;6077176;29;20260;-42
2023/04/30 05:48:30;;;;;;;10.77;9.17;;;;;;;9.74;76.99;98104.38;6082061;29;20229;-41
2023/04/30 05:51:32;;;;;;;11.67;9.27;;;;;;;9.92;75.32;98098.22;6077943;29;20291;-40
2023/04/30 05:54:34;;;;;;;10.90;9.03;;;;;;;10.04;74.28;98107.03;6075543;29;20724;-40
2023/04/30 05:57:36;;;;;;;10.33;8.87;;;;;;;10.00;75.53;98111.19;6075839;29;20321;-42
2023/04/30 06:00:39;;;;;;;11.10;10.00;;;;;;;10.14;73.95;98109.94;6080435;29;20271;-41
2023/04/30 06:03:42;;;;;;;12.93;9.27;;;;;;;10.12;73.94;98109.38;6066310;29;20234;-42
2023/04/30 06:06:44;;;;;;;11.90;9.93;;;;;;;10.22;73.75;98111.47;6083617;29;20238;-41
2023/04/30 06:09:48;;;;;;;11.30;8.33;;;;;;;10.26;74.29;98112.69;6082346;29;20263;-42
2023/04/30 06:12:51;;;;;;;10.53;9.17;;;;;;;10.22;73.31;98108.81;6073856;29;20699;-41
2023/04/30 06:15:53;;;;;;;10.83;9.23;;;;;;;10.19;72.55;98109.25;6076495;29;20338;-40
2023/04/30 06:18:55;;;;;;;13.53;9.13;;;;;;;10.22;72.80;98114.94;6080462;29;20719;-43
2023/04/30 06:21:57;;;;;;;11.13;9.60;;;;;;;10.58;70.81;98113.97;6081453;29;20744;-43
2023/04/30 06:24:59;;;;;;;11.77;9.63;;;;;;;10.59;70.03;98112.97;6069452;29;20751;-42
2023/04/30 06:28:01;;;;;;;12.07;8.20;;;;;;;10.58;73.11;98108.66;6083464;29;20237;-41
2023/04/30 06:31:04;;;;;;;10.10;9.00;;;;;;;10.63;70.84;98104.47;6083033;29;20239;-41
2023/04/30 06:34:07;;;;;;;9.73;8.73;;;;;;;10.69;70.66;98111.53;6077819;29;20238;-41
2023/04/30 06:37:10;;;;;;;9.70;8.13;;;;;;;10.78;70.58;98112.81;6056848;29;20226;-41
2023/04/30 06:40:12;;;;;;;8.60;7.73;;;;;;;10.88;68.65;98107.72;6063186;29;21071;-42
2023/04/30 06:43:16;;;;;;;12.80;8.53;;;;;;;11.01;67.96;98115.47;6078515;29;20225;-45
2023/04/30 06:46:18;;;;;;;9.43;8.33;;;;;;;11.27;67.86;98116.00;6078899;29;20330;-43
2023/04/30 06:49:20;;;;;;;13.37;8.27;;;;;;;11.44;65.32;98105.44;6078845;29;20622;-44
2023/04/30 06:52:22;;;;;;;9.67;7.73;;;;;;;11.55;65.58;98115.25;6076668;29;20379;-43
2023/04/30 06:55:24;;;;;;;9.30;6.60;;;;;;;11.70;66.47;98115.53;6073806;29;20240;-43
2023/04/30 06:58:26;;;;;;;8.50;7.20;;;;;;;11.95;62.69;98109.88;6082039;29;20235;-42
2023/04/30 07:01:28;;;;;;;8.50;7.23;;;;;;;12.17;62.48;98115.38;6078466;29;20800;-42
2023/04/30 07:04:30;;;;;;;8.33;7.13;;;;;;;12.00;62.18;98112.66;6074393;29;20716;-42
2023/04/30 07:07:33;;;;;;;7.57;6.83;;;;;;;11.88;62.94;98112.72;6080546;29;20232;-43
2023/04/30 07:10:35;;;;;;;8.70;7.57;;;;;;;11.87;63.62;98115.59;6069038;29;20239;-43
2023/04/30 07:13:37;;;;;;;10.17;6.87;;;;;;;11.88;65.50;98120.72;6077702;29;20303;-46
2023/04/30 07:16:39;;;;;;;7.80;6.60;;;;;;;11.90;63.56;98115.13;6069819;29;20231;-43
2023/04/30 07:19:41;;;;;;;7.77;6.20;;;;;;;12.01;59.73;98122.28;6074047;29;20250;-42
2023/04/30 07:22:44;;;;;;;7.57;6.50;;;;;;;11.95;58.83;98112.56;6076080;29;20269;-42
2023/04/30 07:25:47;;;;;;;7.47;6.60;;;;;;;11.94;59.27;98116.28;6083132;29;20242;-41
2023/04/30 07:28:49;;;;;;;6.50;5.77;;;;;;;12.10;59.47;98115.50;6073135;29;20491;-47
2023/04/30 07:31:51;;;;;;;7.37;6.20;;;;;;;12.24;59.53;98118.69;6076740;29;20239;-43
2023/04/30 07:34:54;;;;;;;7.57;6.03;;;;;;;12.58;57.91;98108.00;6073267;29;20247;-43
2023/04/30 07:37:56;;;;;;;8.13;6.10;;;;;;;12.54;58.66;98112.22;6074239;29;20680;-42
2023/04/30 07:40:58;;;;;;;7.90;5.60;;;;;;;12.48;58.96;98121.22;6076108;29;20324;-42
2023/04/30 07:44:01;;;;;;;6.63;5.83;;;;;;;12.35;58.27;98117.78;6073055;29;20248;-42
2023/04/30 07:47:04;;;;;;;6.97;5.70;;;;;;;12.50;58.33;98124.44;6076000;29;20239;-42
2023/04/30 07:50:06;;;;;;;6.50;5.70;;;;;;;12.48;57.17;98114.00;6062680;29;20276;-42
2023/04/30 07:53:08;;;;;;;10.17;6.70;;;;;;;12.19;58.60;98112.44;6074421;29;20248;-42
2023/04/30 07:56:11;;;;;;;8.73;6.37;;;;;;;12.23;58.47;98129.63;6075772;29;20236;-41
2023/04/30 07:59:13;;;;;;;7.67;6.50;;;;;;;12.09;59.16;98121.91;6058916;29;20232;-41
2023/04/30 08:02:15;;;;;;;8.23;6.90;;;;;;;12.11;59.72;98124.31;6077059;29;20280;-43
2023/04/30 08:05:17;;;;;;;10.07;6.97;;;;;;;11.97;59.46;98099.81;6073779;29;20409;-42
2023/04/30 08:08:20;;;;;;;7.97;6.57;;;;;;;12.02;57.24;98107.06;6071660;29;20244;-44
2023/04/30 08:11:22;;;;;;;7.73;6.03;;;;;;;12.18;57.21;98132.19;6072993;29;20287;-43
2023/04/30 08:14:24;;;;;;;10.40;6.23;;;;;;;12.11;57.49;98138.47;6065593;29;20656;-42
2023/04/30 08:17:27;;;;;;;7.97;6.13;;;;;;;12.14;57.97;98156.69;6073806;29;20708;-43
2023/04/30 08:20:31;;;;;;;10.13;6.40;;;;;;;11.97;58.06;98145.19;6075166;29;20312;-42
2023/04/30 08:23:33;;;;;;;9.17;5.97;;;;;;;12.01;57.51;98145.50;6079354;29;20237;-43
2023/04/30 08:26:36;;;;;;;6.63;5.60;;;;;;;12.21;57.16;98153.06;6075311;29;20633;-43
2023/04/30 08:29:38;;;;;;;8.13;5.63;;;;;;;12.40;54.29;98157.13;6072338;29;20323;-43
2023/04/30 08:32:40;;;;;;;6.23;5.30;;;;;;;12.36;52.89;98156.00;6072439;29;20246;-42
2023/04/30 08:35:42;;;;;;;6.83;6.13;;;;;;;12.35;53.65;98154.38;6075062;29;20231;-42
2023/04/30 08:38:44;;;;;;;6.80;5.43;;;;;;;12.14;54.21;98162.03;6076770;29;20246;-43
2023/04/30 08:41:54;;;;;;;7.80;4.97;;;;;;;12.14;54.92;98151.38;6076060;29;20686;-42
2023/04/30 08:44:59;;;;;;;6.03;5.30;;;;;;;11.92;54.06;98114.88;6079044;29;20255;-42
2023/04/30 08:48:03;;;;;;;8.10;5.10;;;;;;;12.31;53.72;98155.91;6073415;29;20228;-43
2023/04/30 08:51:06;;;;;;;8.60;6.13;;;;;;;12.54;52.91;98153.09;6082298;29;20241;-42
2023/04/30 08:54:11;;;;;;;5.43;4.60;;;;;;;12.29;53.42;98163.38;6078533;29;20247;-43
2023/04/30 08:57:13;;;;;;;10.03;5.33;;;;;;;12.43;52.84;98164.69;6079029;29;20294;-42
2023/04/30 09:00:15;;;;;;;7.50;4.87;;;;;;;12.52;54.15;98165.09;6082082;29;20339;-42
2023/04/30 09:03:17;;;;;;;6.30;5.23;;;;;;;12.53;54.14;98156.84;6076350;29;20220;-43
2023/04/30 09:06:20;;;;;;;5.10;4.47;;;;;;;12.64;53.29;98161.28;6078294;29;20224;-42
2023/04/30 09:09:28;;;;;;;7.30;5.50;;;;;;;12.88;52.75;98164.59;6081094;29;20244;-43
2023/04/30 09:12:30;;;;;;;8.00;5.67;;;;;;;12.76;50.77;98161.22;6079309;29;20595;-42
2023/04/30 09:15:34;;;;;;;6.23;4.90;;;;;;;12.70;52.66;98158.69;6079367;29;20725;-43
2023/04/30 09:18:38;;;;;;;6.23;5.37;;;;;;;12.71;51.82;98171.00;6076882;29;20232;-43
2023/04/30 09:21:40;;;;;;;6.97;5.33;;;;;;;12.50;54.00;98170.66;6076971;29;20367;-43
2023/04/30 09:24:48;;;;;;;9.10;5.83;;;;;;;12.48;52.64;98156.75;6082723;29;20238;-43
2023/04/30 09:28:10;;;;;;;7.27;5.70;;;;;;;12.53;52.97;98166.72;6080606;29;20240;-43
2023/04/30 09:31:20;;;;;;;12.17;5.63;;;;;;;12.45;53.06;98153.75;6078479;29;20324;-44
2023/04/30 09:34:33;;;;;;;11.40;5.87;;;;;;;12.52;53.50;98173.94;6082002;29;20244;-46
2023/04/30 09:37:37;;;;;;;6.87;6.00;;;;;;;12.65;52.33;98170.91;6075222;29;20785;-43
2023/04/30 09:40:41;;;;;;;7.93;6.30;;;;;;;12.75;54.21;98172.13;6076054;29;20618;-42
2023/04/30 09:43:46;;;;;;;7.27;6.33;;;;;;;12.81;54.07;98171.19;6077514;29;20583;-42
2023/04/30 09:46:49;;;;;;;6.50;5.60;;;;;;;12.90;53.85;98172.38;6083088;29;20322;-44
2023/04/30 09:49:52;;;;;;;7.50;5.77;;;;;;;12.84;55.40;98168.81;6079699;29;20327;-43
2023/04/30 09:53:05;;;;;;;9.00;6.17;;;;;;;12.83;53.43;98179.75;6076751;29;20331;-47
2023/04/30 09:56:10;;;;;;;8.47;6.70;;;;;;;12.80;54.71;98170.34;6081596;29;20364;-44
2023/04/30 09:59:13;;;;;;;8.73;6.93;;;;;;;12.80;54.62;98169.53;6081007;29;20231;-46
2023/04/30 10:02:17;;;;;;;7.50;6.50;;;;;;;12.58;54.73;98154.25;6075478;29;20682;-42
2023/04/30 10:05:19;;;;;;;8.17;7.23;;;;;;;12.69;55.00;98159.75;6079078;29;20231;-45
2023/04/30 10:08:31;;;;;;;9.90;7.27;;;;;;;12.62;55.60;98139.34;6064064;29;20727;-42
2023/04/30 10:11:35;;;;;;;10.67;7.20;;;;;;;13.04;54.96;98146.91;6076713;29;20239;-45
2023/04/30 10:14:39;;;;;;;8.93;7.30;;;;;;;13.08;54.31;98149.91;6082624;29;20647;-43
2023/04/30 10:17:46;;;;;;;8.40;7.00;;;;;;;13.14;55.97;98146.25;6073989;29;20235;-44
2023/04/30 10:20:52;;;;;;;7.20;6.50;;;;;;;13.11;54.89;98142.22;6078652;29;20251;-44
2023/04/30 10:23:54;;;;;;;7.60;6.80;;;;;;;13.21;54.13;98146.88;6076231;29;20726;-43
2023/04/30 10:26:57;;;;;;;7.47;6.47;;;;;;;13.17;54.48;98145.75;6080344;29;20227;-45
2023/04/30 10:30:00;;;;;;;7.50;6.40;;;;;;;13.31;53.90;98140.91;6078528;29;20243;-47
2023/04/30 10:33:25;;;;;;;7.53;6.47;;;;;;;13.58;54.12;98127.56;6077628;29;20236;-44
2023/04/30 10:36:38;;;;;;;7.37;5.50;;;;;;;13.80;55.00;98130.25;6077498;29;20227;-42
2023/04/30 10:39:40;;;;;;;8.87;6.17;;;;;;;14.01;53.08;98118.66;6075297;29;20242;-45
2023/04/30 10:42:50;;;;;;;7.10;5.10;;;;;;;14.05;51.42;98127.81;6075605;29;20236;-43
2023/04/30 10:46:03;;;;;;;5.37;4.90;;;;;;;13.99;51.93;98123.47;6062285;29;20646;-43
2023/04/30 10:49:06;;;;;;;8.03;5.10;;;;;;;13.77;50.78;98120.03;6064475;29;20237;-46
2023/04/30 10:52:10;;;;;;;6.07;5.40;;;;;;;13.97;49.76;98122.91;6079432;29;20264;-44
2023/04/30 10:55:16;;;;;;;6.73;5.30;;;;;;;13.99;51.88;98115.44;6077573;29;20319;-43
2023/04/30 10:58:28;;;;;;;6.47;5.80;;;;;;;14.13;49.30;98107.78;6078591;29;20240;-45
2023/04/30 11:01:31;;;;;;;6.30;5.53;;;;;;;14.45;47.63;98113.16;6075737;29;20805;-44
2023/04/30 11:04:53;;;;;;;6.53;4.80;;;;;;;14.28;48.43;98096.38;6079156;29;20291;-47
2023/04/30 11:07:57;;;;;;;6.80;5.07;;;;;;;14.29;50.60;98084.63;6072710;29;20319;-44
2023/04/30 11:11:00;;;;;;;10.83;5.13;;;;;;;14.19;50.16;98072.75;6070789;29;20227;-45
2023/04/30 11:14:02;;;;;;;6.07;5.10;;;;;;;14.43;49.39;98088.47;6073886;29;20725;-44
2023/04/30 11:17:04;;;;;;;5.20;4.70;;;;;;;14.64;51.12;98074.19;6077830;29;20236;-45
2023/04/30 11:20:12;;;;;;;7.67;5.33;;;;;;;14.93;46.78;98079.22;6076481;29;20228;-45
2023/04/30 11:23:15;;;;;;;4.67;4.27;;;;;;;15.20;47.73;98077.19;6072656;29;20228;-49
2023/04/30 11:26:29;;;;;;;5.83;5.23;;;;;;;15.07;47.36;98084.88;6075844;29;20240;-46
2023/04/30 11:29:31;;;;;;;6.10;5.10;;;;;;;14.59;44.63;98084.09;6064215;29;20248;-48
2023/04/30 11:32:35;;;;;;;6.07;5.07;;;;;;;14.50;48.07;98085.63;6076337;29;20252;-44
2023/04/30 11:35:38;;;;;;;6.37;5.30;;;;;;;14.31;47.87;98095.91;6070598;29;20255;-45
2023/04/30 11:38:41;;;;;;;7.93;5.33;;;;;;;14.22;47.51;98087.50;6078050;29;20326;-46
2023/04/30 11:41:45;;;;;;;5.20;4.70;;;;;;;14.19;48.07;98083.47;6075098;29;20720;-43
2023/04/30 11:44:47;;;;;;;5.50;4.90;;;;;;;14.37;48.20;98084.16;6072224;29;20787;-44
2023/04/30 11:47:51;;;;;;;6.00;5.07;;;;;;;14.55;48.33;98083.78;6076724;29;20387;-48
2023/04/30 11:50:53;;;;;;;8.07;5.80;;;;;;;14.63;47.61;98080.63;6059926;29;20236;-47
2023/04/30 11:53:56;;;;;;;7.07;5.60;;;;;;;13.93;48.52;97977.16;6077414;29;20647;-45
2023/04/30 11:57:02;;;;;;;7.13;5.40;;;;;;;14.54;48.88;98070.66;6074146;29;20303;-44
2023/04/30 12:00:13;;;;;;;7.10;5.30;;;;;;;14.58;49.71;98079.75;6077543;29;20235;-44
2023/04/30 12:03:16;;;;;;;5.97;5.30;;;;;;;14.64;49.56;98082.25;6072972;29;20220;-45
2023/04/30 12:06:23;;;;;;;6.80;5.70;;;;;;;14.65;48.31;98089.22;6074759;29;20211;-46
2023/04/30 12:09:25;;;;;;;8.87;5.87;;;;;;;14.70;48.19;98091.13;6068602;29;21386;-45
2023/04/30 12:12:28;;;;;;;5.73;5.10;;;;;;;14.53;49.95;98093.97;6075409;29;20769;-48
2023/04/30 12:15:32;;;;;;;6.57;5.50;;;;;;;14.67;48.22;98088.94;6075979;29;20242;-43
2023/04/30 12:18:34;;;;;;;6.10;5.50;;;;;;;14.87;47.39;98088.28;6073174;29;20275;-44
2023/04/30 12:21:37;;;;;;;6.00;5.40;;;;;;;14.71;45.69;98092.75;6071369;29;20232;-43
2023/04/30 12:24:39;;;;;;;7.30;4.77;;;;;;;14.23;47.20;98088.31;6073214;29;20346;-45
2023/04/30 12:27:44;;;;;;;5.73;5.13;;;;;;;14.15;47.83;98093.09;6077807;29;20630;-40
2023/04/30 12:30:46;;;;;;;6.63;4.60;;;;;;;13.98;49.66;98088.88;6072391;29;20240;-43
2023/04/30 12:33:55;;;;;;;4.57;4.17;;;;;;;14.00;49.72;98097.50;6072138;29;20730;-45
2023/04/30 12:36:58;;;;;;;7.53;5.37;;;;;;;13.98;49.50;98091.56;6071845;29;20260;-44
2023/04/30 12:40:00;;;;;;;7.70;5.03;;;;;;;13.71;51.64;98065.59;6062192;29;20241;-45
2023/04/30 12:43:07;;;;;;;7.43;5.60;;;;;;;13.85;50.89;98079.41;6037176;29;20243;-44
2023/04/30 12:46:11;;;;;;;7.60;5.77;;;;;;;13.82;52.34;98093.28;6062421;29;20237;-44
2023/04/30 12:49:22;;;;;;;7.43;6.70;;;;;;;13.75;51.78;98084.66;6068783;29;20238;-47
2023/04/30 12:52:25;;;;;;;7.13;5.67;;;;;;;13.75;51.68;98090.03;6071784;29;20318;-45
2023/04/30 12:55:28;;;;;;;8.47;6.40;;;;;;;13.98;51.54;98080.84;6072002;29;20251;-46
2023/04/30 12:58:30;;;;;;;6.87;6.23;;;;;;;14.06;51.49;98085.75;6072803;29;20323;-44
2023/04/30 13:01:43;;;;;;;9.77;6.33;;;;;;;14.34;50.63;98077.44;6072001;29;20308;-46
2023/04/30 13:04:46;;;;;;;10.00;6.40;;;;;;;14.41;50.59;98069.97;6075185;29;20243;-48
2023/04/30 13:07:54;;;;;;;7.03;6.10;;;;;;;14.40;50.94;98067.56;6072628;29;20705;-45
2023/04/30 13:10:56;;;;;;;6.47;5.60;;;;;;;14.50;50.85;98056.13;6071718;29;20239;-44
2023/04/30 13:13:58;;;;;;;6.57;5.93;;;;;;;14.33;49.50;98058.91;6072252;29;20339;-44
2023/04/30 13:17:03;;;;;;;6.47;5.40;;;;;;;14.46;48.91;98056.59;6072209;29;20642;-44
2023/04/30 13:20:07;;;;;;;5.20;4.70;;;;;;;14.34;49.85;98061.34;6060101;29;20268;-44
2023/04/30 13:23:10;;;;;;;10.77;5.77;;;;;;;14.32;50.46;98042.03;6060165;29;20604;-47
2023/04/30 13:26:12;;;;;;;6.10;5.07;;;;;;;14.18;50.98;98036.28;6060337;29;20251;-46
2023/04/30 13:29:14;;;;;;;6.33;4.93;;;;;;;14.15;52.16;98036.81;6068717;29;20247;-44
2023/04/30 13:32:17;;;;;;;7.97;4.93;;;;;;;14.30;50.75;98033.44;6072398;29;20469;-44
2023/04/30 13:35:20;;;;;;;7.00;5.60;;;;;;;14.30;48.97;98036.13;6058075;29;20919;-44
2023/04/30 13:38:22;;;;;;;6.20;4.83;;;;;;;14.05;48.55;97999.22;6076433;29;20242;-44
2023/04/30 13:41:24;;;;;;;5.40;4.90;;;;;;;14.30;47.73;98036.13;6076898;29;20236;-43
2023/04/30 13:44:26;;;;;;;5.03;4.63;;;;;;;14.35;48.93;98038.03;6076015;29;20777;-43
2023/04/30 13:47:29;;;;;;;8.53;5.13;;;;;;;14.51;48.65;98037.09;6065163;29;20275;-44
2023/04/30 13:50:31;;;;;;;5.90;4.90;;;;;;;14.44;49.11;98028.47;6055349;29;20231;-48
2023/04/30 13:53:34;;;;;;;8.47;5.50;;;;;;;14.57;50.05;98035.25;6068504;29;20276;-43
2023/04/30 13:56:37;;;;;;;7.03;5.77;;;;;;;14.50;49.49;98026.66;6074914;29;20247;-43
2023/04/30 13:59:39;;;;;;;8.83;5.50;;;;;;;14.41;49.14;98026.28;6075902;29;20733;-43
2023/04/30 14:02:41;;;;;;;8.20;5.60;;;;;;;14.43;49.82;98018.78;6075062;29;20259;-45
2023/04/30 14:05:43;;;;;;;5.90;4.93;;;;;;;14.34;50.56;98012.31;6077731;29;20240;-43
2023/04/30 14:08:45;;;;;;;5.77;5.20;;;;;;;14.56;48.74;98015.69;6074518;29;20242;-43
2023/04/30 14:11:47;;;;;;;6.17;4.70;;;;;;;14.83;50.05;98014.78;6075445;29;20824;-44
2023/04/30 14:14:49;;;;;;;5.90;4.77;;;;;;;14.76;49.21;98009.63;6079104;29;20240;-48
2023/04/30 14:17:51;;;;;;;5.73;4.63;;;;;;;14.82;50.27;98003.22;6076971;29;20243;-44
2023/04/30 14:20:53;;;;;;;5.47;4.97;;;;;;;14.87;47.95;98005.91;6058532;29;20236;-43
2023/04/30 14:23:55;;;;;;;4.73;4.33;;;;;;;14.83;49.08;98004.84;6075165;29;20248;-45